Time;durP1;ratioP1;P1;durP2;ratioP2;P2;SDS_P1;SDS_P2;PMS_P1;PMS_P2;Temp;Humidity;BMP_temperature;BMP_pressure;BME280_temperature;BME280_humidity;BME280_pressure;Samples;Min_cycle;Max_cycle;Signal;HPM_P1;HPM_P2
2022/10/13 00:02:17;;;;;;;22.40;13.98;;;;;;;10.17;100.00;101753.81;5262685;28;20047;-72
2022/10/13 00:04:48;;;;;;;21.13;13.43;;;;;;;10.17;100.00;101757.34;5265991;28;20021;-72
2022/10/13 00:07:19;;;;;;;22.80;13.25;;;;;;;10.09;100.00;101758.75;5264239;28;20040;-72
2022/10/13 00:09:50;;;;;;;25.15;13.93;;;;;;;10.25;100.00;101753.34;5265425;28;20036;-72
2022/10/13 00:12:22;;;;;;;25.58;13.30;;;;;;;10.21;100.00;101753.53;5259178;28;20067;-72
2022/10/13 00:14:53;;;;;;;19.70;13.23;;;;;;;10.16;100.00;101746.75;5262928;28;20032;-72
2022/10/13 00:17:24;;;;;;;22.17;13.80;;;;;;;10.23;100.00;101742.78;5250407;28;20033;-72
2022/10/13 00:19:56;;;;;;;23.50;13.80;;;;;;;10.28;100.00;101737.16;5262086;28;20071;-72
2022/10/13 00:22:27;;;;;;;20.15;13.18;;;;;;;10.23;100.00;101740.09;5260492;28;20044;-72
2022/10/13 00:24:58;;;;;;;23.15;13.88;;;;;;;10.19;100.00;101736.75;5257285;28;20036;-72
2022/10/13 00:27:30;;;;;;;21.48;13.43;;;;;;;10.15;100.00;101729.06;5252450;28;20274;-72
2022/10/13 00:30:01;;;;;;;20.10;13.40;;;;;;;10.14;100.00;101736.22;5265036;28;20040;-72
2022/10/13 00:32:32;;;;;;;21.92;13.63;;;;;;;10.14;100.00;101732.66;5263085;28;20147;-72
2022/10/13 00:35:04;;;;;;;22.77;14.10;;;;;;;10.09;100.00;101737.44;5254127;28;20455;-72
2022/10/13 00:37:35;;;;;;;24.73;13.80;;;;;;;10.14;100.00;101732.66;5258533;28;20556;-72
2022/10/13 00:40:07;;;;;;;23.00;13.73;;;;;;;10.13;100.00;101730.97;5260087;28;20032;-72
2022/10/13 00:42:40;;;;;;;23.60;13.48;;;;;;;10.19;100.00;101726.09;5256747;28;20135;-72
2022/10/13 00:45:28;;;;;;;21.20;13.13;;;;;;;10.15;100.00;101729.06;5266554;28;20036;-72
2022/10/13 00:48:00;;;;;;;21.55;13.93;;;;;;;10.23;100.00;101732.09;5249745;28;20096;-73
2022/10/13 00:50:37;;;;;;;25.27;13.55;;;;;;;10.17;100.00;101735.16;5265791;28;20063;-72
2022/10/13 00:53:10;;;;;;;24.27;13.75;;;;;;;10.16;100.00;101728.09;5248466;28;20475;-72
2022/10/13 00:55:44;;;;;;;24.15;14.20;;;;;;;10.26;100.00;101728.38;5250628;28;20045;-72
2022/10/13 00:58:18;;;;;;;24.58;13.55;;;;;;;10.27;100.00;101724.78;5253843;28;20036;-73
2022/10/13 01:00:51;;;;;;;22.17;12.98;;;;;;;10.31;100.00;101727.19;5254022;28;20035;-72
2022/10/13 01:03:24;;;;;;;22.92;13.48;;;;;;;10.29;100.00;101725.53;5252914;28;20036;-72
2022/10/13 01:05:58;;;;;;;22.88;13.70;;;;;;;10.26;100.00;101720.38;5253021;28;20036;-72
2022/10/13 01:08:30;;;;;;;23.38;12.95;;;;;;;10.28;100.00;101723.81;5262046;28;20028;-72
2022/10/13 01:11:31;;;;;;;23.90;13.77;;;;;;;10.32;100.00;101722.72;5256147;28;20329;-72
2022/10/13 01:14:16;;;;;;;21.70;12.60;;;;;;;10.28;100.00;101730.03;5262624;28;20501;-72
2022/10/13 01:17:28;;;;;;;24.17;13.05;;;;;;;10.26;100.00;101723.94;5258134;28;20059;-72
2022/10/13 01:20:12;;;;;;;25.02;13.40;;;;;;;10.31;100.00;101723.66;5257065;28;20041;-72
2022/10/13 01:22:46;;;;;;;20.67;13.18;;;;;;;10.31;100.00;101723.66;5260114;28;20391;-72
2022/10/13 01:25:33;;;;;;;27.60;13.50;;;;;;;10.33;100.00;101719.94;5259700;28;20386;-72
2022/10/13 01:28:39;;;;;;;26.45;13.63;;;;;;;10.29;100.00;101715.72;5260159;28;20045;-72
2022/10/13 01:31:19;;;;;;;22.13;13.45;;;;;;;10.31;100.00;101723.66;5257638;28;20033;-72
2022/10/13 01:33:56;;;;;;;25.02;13.68;;;;;;;10.30;100.00;101720.16;5255565;28;21034;-72
2022/10/13 01:36:43;;;;;;;26.15;13.68;;;;;;;10.42;100.00;101717.69;5255239;28;20049;-72
2022/10/13 01:39:34;;;;;;;24.80;14.07;;;;;;;10.34;100.00;101720.81;5263918;28;20537;-72
2022/10/13 01:42:16;;;;;;;23.48;13.43;;;;;;;10.30;100.00;101716.59;5261772;28;20033;-72
2022/10/13 01:44:53;;;;;;;21.98;13.02;;;;;;;10.30;100.00;101714.81;5249759;28;20075;-72
2022/10/13 01:47:26;;;;;;;23.67;13.35;;;;;;;10.31;100.00;101713.84;5237017;28;20513;-72
2022/10/13 01:49:59;;;;;;;24.58;12.85;;;;;;;10.39;100.00;101714.25;5259849;28;20167;-72
2022/10/13 01:52:35;;;;;;;23.90;13.20;;;;;;;10.36;100.00;101711.75;5259178;28;20360;-72
2022/10/13 01:55:10;;;;;;;21.33;13.10;;;;;;;10.35;100.00;101710.03;5255621;28;20387;-72
2022/10/13 01:57:43;;;;;;;23.58;12.40;;;;;;;10.44;100.00;101707.78;5255912;28;20557;-73
2022/10/13 02:00:18;;;;;;;23.05;12.63;;;;;;;10.36;100.00;101706.44;5254549;28;20112;-72
2022/10/13 02:03:04;;;;;;;;;;;;;;;10.43;100.00;101700.72;5261365;28;20090;-72
2022/10/13 02:05:59;;;;;;;21.92;12.73;;;;;;;10.37;100.00;101691.28;5262874;28;19965;-72
2022/10/13 02:08:53;;;;;;;28.88;13.95;;;;;;;10.43;100.00;101693.56;5259697;28;20028;-72
2022/10/13 02:11:26;;;;;;;23.88;13.05;;;;;;;10.33;100.00;101685.25;5258472;28;20032;-72
2022/10/13 02:14:05;;;;;;;21.33;12.63;;;;;;;10.44;100.00;101686.44;5258522;28;20029;-72
2022/10/13 02:16:41;;;;;;;25.85;13.38;;;;;;;10.53;100.00;101686.72;5254166;28;20369;-72
2022/10/13 02:19:16;;;;;;;25.08;12.68;;;;;;;10.56;100.00;101688.31;5263579;28;20035;-72
2022/10/13 02:21:47;;;;;;;23.52;12.77;;;;;;;10.42;100.00;101683.84;5273669;28;20057;-72
2022/10/13 02:24:19;;;;;;;21.67;12.73;;;;;;;10.42;100.00;101672.34;5253364;28;20143;-72
2022/10/13 02:26:50;;;;;;;21.50;13.35;;;;;;;10.47;100.00;101668.41;5248995;28;20481;-72
2022/10/13 02:29:22;;;;;;;22.33;12.90;;;;;;;10.54;100.00;101668.88;5252806;28;20033;-73
2022/10/13 02:31:53;;;;;;;20.67;12.18;;;;;;;10.43;100.00;101664.22;5249415;28;20106;-72
2022/10/13 02:34:25;;;;;;;21.63;12.55;;;;;;;10.45;100.00;101670.34;5254652;28;20735;-73
2022/10/13 02:36:56;;;;;;;21.83;12.63;;;;;;;10.46;100.00;101671.19;5257569;28;20769;-73
2022/10/13 02:39:27;;;;;;;21.50;12.27;;;;;;;10.54;100.00;101667.06;5256550;28;20509;-72
2022/10/13 02:41:59;;;;;;;22.63;12.73;;;;;;;10.46;100.00;101671.19;5254130;28;20085;-73
2022/10/13 02:44:30;;;;;;;24.42;12.68;;;;;;;10.48;100.00;101670.13;5255384;28;20047;-73
2022/10/13 02:47:02;;;;;;;20.35;11.88;;;;;;;10.48;100.00;101662.13;5254805;28;20744;-72
2022/10/13 02:49:33;;;;;;;24.23;12.57;;;;;;;10.48;100.00;101664.78;5257550;28;20035;-72
2022/10/13 02:52:04;;;;;;;21.38;12.20;;;;;;;10.60;100.00;101660.47;5253875;28;20024;-72
2022/10/13 02:54:35;;;;;;;18.38;11.73;;;;;;;10.51;100.00;101661.94;5256789;28;20061;-72
2022/10/13 02:57:07;;;;;;;20.83;12.35;;;;;;;10.56;100.00;101661.63;5253892;28;20028;-72
2022/10/13 02:59:38;;;;;;;21.33;12.77;;;;;;;10.65;100.00;101654.88;5253496;28;20024;-72
2022/10/13 03:02:09;;;;;;;22.10;12.80;;;;;;;10.50;100.00;101664.69;5231286;28;20149;-72
2022/10/13 03:04:40;;;;;;;17.27;11.70;;;;;;;10.48;100.00;101659.44;5252680;28;20039;-72
2022/10/13 03:07:12;;;;;;;16.83;11.45;;;;;;;10.55;100.00;101660.78;5263934;28;20033;-72
2022/10/13 03:09:43;;;;;;;19.38;11.57;;;;;;;10.56;100.00;101653.63;5264546;28;20119;-72
2022/10/13 03:12:14;;;;;;;19.20;12.48;;;;;;;10.58;100.00;101649.94;5258321;28;20058;-72
2022/10/13 03:14:46;;;;;;;22.38;11.98;;;;;;;10.61;100.00;101640.00;5264368;28;20036;-72
2022/10/13 03:17:17;;;;;;;18.05;11.30;;;;;;;10.60;100.00;101644.47;5262281;28;20394;-72
2022/10/13 03:19:48;;;;;;;18.48;11.48;;;;;;;10.64;100.00;101639.78;5254563;28;20104;-72
2022/10/13 03:22:20;;;;;;;20.38;11.77;;;;;;;10.49;100.00;101645.16;5260289;28;20062;-72
2022/10/13 03:24:51;;;;;;;18.70;11.55;;;;;;;10.57;100.00;101642.00;5257209;28;20989;-73
2022/10/13 03:27:22;;;;;;;20.85;12.40;;;;;;;10.52;100.00;101652.09;5256428;28;20020;-73
2022/10/13 03:29:54;;;;;;;21.88;11.77;;;;;;;10.53;100.00;101644.00;5261931;28;20037;-72
2022/10/13 03:32:25;;;;;;;17.90;11.98;;;;;;;10.57;100.00;101645.53;5257791;28;20033;-72
2022/10/13 03:34:56;;;;;;;17.10;11.48;;;;;;;10.67;100.00;101637.78;5259070;28;20039;-72
2022/10/13 03:37:29;;;;;;;18.15;11.70;;;;;;;10.57;100.00;101640.19;5241002;28;20029;-73
2022/10/13 03:40:00;;;;;;;16.90;11.00;;;;;;;10.55;100.00;101633.25;5253327;28;20045;-72
2022/10/13 03:42:34;;;;;;;18.52;11.40;;;;;;;10.56;100.00;101633.13;5253767;28;20028;-72
2022/10/13 03:45:06;;;;;;;19.88;12.43;;;;;;;10.62;100.00;101626.53;5251773;28;20028;-72
2022/10/13 03:47:37;;;;;;;19.75;12.23;;;;;;;10.67;100.00;101627.13;5250168;28;20033;-72
2022/10/13 03:50:09;;;;;;;20.05;11.45;;;;;;;10.66;100.00;101628.09;5254057;28;20484;-74
2022/10/13 03:52:40;;;;;;;17.67;10.85;;;;;;;10.62;100.00;101626.53;5254535;28;20036;-73
2022/10/13 03:55:11;;;;;;;23.00;13.15;;;;;;;10.63;100.00;101625.59;5253237;28;20059;-72
2022/10/13 03:57:43;;;;;;;17.65;11.45;;;;;;;10.62;100.00;101615.88;5251129;28;20052;-72
2022/10/13 04:00:15;;;;;;;19.00;11.43;;;;;;;10.71;100.00;101612.59;5253145;28;20032;-72
2022/10/13 04:02:48;;;;;;;18.67;11.18;;;;;;;10.75;100.00;101600.78;5253526;28;20162;-72
2022/10/13 04:05:19;;;;;;;20.63;12.07;;;;;;;10.70;100.00;101608.25;5261139;28;20028;-72
2022/10/13 04:07:50;;;;;;;20.58;11.38;;;;;;;10.71;100.00;101609.94;5262267;28;20041;-72
2022/10/13 04:10:21;;;;;;;18.63;11.32;;;;;;;10.78;100.00;101597.91;5265114;28;20040;-72
2022/10/13 04:12:53;;;;;;;20.73;12.35;;;;;;;10.87;100.00;101607.13;5260851;28;20033;-72
2022/10/13 04:15:24;;;;;;;20.27;11.27;;;;;;;10.86;100.00;101602.75;5258289;28;20115;-73
2022/10/13 04:17:55;;;;;;;19.48;12.45;;;;;;;10.75;100.00;101606.13;5259991;28;20435;-73
2022/10/13 04:20:27;;;;;;;19.60;11.35;;;;;;;10.77;100.00;101614.03;5262416;28;20108;-72
2022/10/13 04:22:58;;;;;;;16.63;11.32;;;;;;;10.90;100.00;101600.75;5261156;28;20044;-73
2022/10/13 04:25:29;;;;;;;21.85;11.85;;;;;;;10.87;100.00;101598.25;5256696;28;20057;-73
2022/10/13 04:28:02;;;;;;;20.38;11.35;;;;;;;10.82;100.00;101595.06;5256704;28;20111;-72
2022/10/13 04:30:33;;;;;;;19.95;11.40;;;;;;;10.84;100.00;101585.13;5254297;28;20139;-73
2022/10/13 04:33:05;;;;;;;17.15;12.18;;;;;;;10.88;100.00;101584.81;5258757;28;20180;-72
2022/10/13 04:35:40;;;;;;;16.95;10.35;;;;;;;10.79;100.00;101585.41;5257940;28;20493;-73
2022/10/13 04:38:11;;;;;;;17.30;11.48;;;;;;;10.88;100.00;101583.97;5262423;28;20041;-73
2022/10/13 04:40:43;;;;;;;19.15;12.25;;;;;;;10.76;100.00;101585.63;5259255;28;20052;-73
2022/10/13 04:43:14;;;;;;;20.33;12.25;;;;;;;10.79;100.00;101590.75;5255846;28;20024;-73
2022/10/13 04:45:46;;;;;;;18.13;11.60;;;;;;;10.83;100.00;101575.41;5256535;28;20036;-73
2022/10/13 04:48:17;;;;;;;20.33;11.15;;;;;;;10.75;100.00;101578.56;5259682;28;20108;-72
2022/10/13 04:51:01;;;;;;;21.65;12.35;;;;;;;10.80;100.00;101576.47;5273153;28;20474;-73
2022/10/13 04:53:32;;;;;;;19.60;12.02;;;;;;;10.81;100.00;101588.00;5254767;28;20058;-72
2022/10/13 04:56:12;;;;;;;18.45;10.98;;;;;;;10.73;100.00;101585.81;5262253;28;20029;-73
2022/10/13 04:58:44;;;;;;;19.73;12.23;;;;;;;10.72;100.00;101584.97;5258800;28;20021;-72
2022/10/13 05:01:21;;;;;;;20.65;11.27;;;;;;;10.73;100.00;101581.34;5255401;28;20056;-73
2022/10/13 05:03:56;;;;;;;15.45;10.95;;;;;;;10.66;100.00;101573.84;5256643;28;20041;-73
2022/10/13 05:06:29;;;;;;;;;;;;;;;10.82;100.00;101573.69;5259931;28;20383;-73
2022/10/13 05:09:01;;;;;;;19.38;11.65;;;;;;;10.77;100.00;101561.50;5258158;28;19931;-73
2022/10/13 05:11:32;;;;;;;18.20;11.73;;;;;;;10.71;100.00;101579.72;5261351;28;20399;-72
2022/10/13 05:14:03;;;;;;;22.52;13.07;;;;;;;10.71;100.00;101579.72;5262373;28;20027;-72
2022/10/13 05:16:35;;;;;;;17.75;11.07;;;;;;;10.76;100.00;101582.97;5262958;28;20402;-73
2022/10/13 05:19:06;;;;;;;20.83;12.32;;;;;;;10.83;100.00;101572.72;5261115;28;20131;-73
2022/10/13 05:21:37;;;;;;;19.95;12.10;;;;;;;10.73;100.00;101580.50;5260827;28;20193;-73
2022/10/13 05:24:12;;;;;;;18.55;11.73;;;;;;;10.79;100.00;101578.25;5259924;28;20037;-73
2022/10/13 05:26:43;;;;;;;19.67;11.50;;;;;;;10.86;100.00;101581.41;5270853;28;20047;-74
2022/10/13 05:29:16;;;;;;;21.77;12.25;;;;;;;10.81;100.00;101583.50;5269085;28;20029;-73
2022/10/13 05:31:47;;;;;;;19.33;11.68;;;;;;;10.70;100.00;101589.56;5265654;28;20067;-73
2022/10/13 05:34:18;;;;;;;18.30;11.43;;;;;;;10.67;100.00;101589.75;5266974;28;20063;-73
2022/10/13 05:36:50;;;;;;;22.05;11.35;;;;;;;10.78;100.00;101584.56;5266512;28;20021;-73
2022/10/13 05:39:21;;;;;;;18.73;12.60;;;;;;;10.71;100.00;101585.91;5255510;28;20293;-73
2022/10/13 05:41:52;;;;;;;22.67;12.18;;;;;;;10.82;100.00;101581.72;5256649;28;20024;-73
2022/10/13 05:44:25;;;;;;;17.88;11.60;;;;;;;10.80;100.00;101581.81;5258968;28;20032;-73
2022/10/13 05:46:56;;;;;;;19.42;11.98;;;;;;;10.71;100.00;101582.41;5267003;28;20025;-73
2022/10/13 05:49:27;;;;;;;19.45;12.38;;;;;;;10.75;100.00;101573.22;5267745;28;20029;-73
2022/10/13 05:52:02;;;;;;;19.65;12.23;;;;;;;10.65;100.00;101575.66;5257704;28;20461;-73
2022/10/13 05:54:38;;;;;;;17.60;11.57;;;;;;;10.70;100.00;101578.88;5266290;28;20128;-73
2022/10/13 05:57:16;;;;;;;22.60;12.15;;;;;;;10.68;100.00;101578.13;5269796;28;20501;-72
2022/10/13 05:59:52;;;;;;;19.02;11.55;;;;;;;10.75;100.00;101582.09;5271372;28;20790;-73
2022/10/13 06:02:30;;;;;;;17.95;11.68;;;;;;;10.66;100.00;101585.38;5262783;28;20332;-73
2022/10/13 06:05:05;;;;;;;18.70;12.82;;;;;;;10.76;100.00;101585.63;5264853;28;20063;-74
2022/10/13 06:07:36;;;;;;;20.42;12.38;;;;;;;10.67;100.00;101583.56;5268948;28;20029;-74
2022/10/13 06:10:09;;;;;;;21.90;12.95;;;;;;;10.76;100.00;101570.47;5267597;28;20040;-73
2022/10/13 06:12:41;;;;;;;19.15;11.70;;;;;;;10.72;100.00;101565.41;5268748;28;20025;-73
2022/10/13 06:15:12;;;;;;;22.65;12.35;;;;;;;10.72;100.00;101557.41;5268818;28;20036;-73
2022/10/13 06:17:43;;;;;;;20.48;12.52;;;;;;;10.75;100.00;101574.09;5268274;28;20039;-73
2022/10/13 06:20:15;;;;;;;25.20;12.77;;;;;;;10.78;100.00;101560.53;5266187;28;20115;-74
2022/10/13 06:22:48;;;;;;;22.15;12.80;;;;;;;10.74;100.00;101552.84;5265422;28;20028;-73
2022/10/13 06:25:20;;;;;;;19.38;12.27;;;;;;;10.80;100.00;101549.78;5276899;28;20029;-73
2022/10/13 06:27:51;;;;;;;21.85;12.65;;;;;;;10.76;100.00;101556.28;5266925;28;20036;-73
2022/10/13 06:30:22;;;;;;;18.90;12.40;;;;;;;10.78;100.00;101557.88;5264993;28;20471;-73
2022/10/13 06:32:54;;;;;;;20.98;12.50;;;;;;;10.92;100.00;101564.13;5263411;28;20516;-73
2022/10/13 06:35:26;;;;;;;20.33;12.02;;;;;;;11.02;100.00;101567.03;5265064;28;20029;-73
2022/10/13 06:37:57;;;;;;;18.50;12.38;;;;;;;10.87;100.00;101553.72;5267402;28;20016;-73
2022/10/13 06:40:28;;;;;;;22.15;12.35;;;;;;;10.90;100.00;101545.53;5258176;28;20378;-73
2022/10/13 06:42:59;;;;;;;20.05;12.48;;;;;;;10.98;100.00;101555.69;5278795;28;20480;-73
2022/10/13 06:45:31;;;;;;;21.73;12.50;;;;;;;10.92;100.00;101558.78;5270011;28;20025;-73
2022/10/13 06:48:02;;;;;;;18.38;12.05;;;;;;;10.93;100.00;101563.16;5266642;28;20055;-73
2022/10/13 06:50:33;;;;;;;18.40;12.10;;;;;;;10.95;100.00;101559.44;5271269;28;20028;-73
2022/10/13 06:53:05;;;;;;;25.35;12.73;;;;;;;11.17;100.00;101558.84;5268928;28;20028;-73
2022/10/13 06:55:36;;;;;;;24.48;12.70;;;;;;;11.18;100.00;101552.53;5270141;28;20228;-73
2022/10/13 06:58:08;;;;;;;22.30;12.32;;;;;;;11.23;100.00;101548.69;5262221;28;20032;-73
2022/10/13 07:00:40;;;;;;;21.38;12.95;;;;;;;11.08;100.00;101551.44;5269092;28;20028;-73
2022/10/13 07:03:12;;;;;;;18.58;12.57;;;;;;;11.12;100.00;101557.44;5271092;28;20042;-73
2022/10/13 07:05:43;;;;;;;22.88;12.98;;;;;;;11.16;100.00;101546.44;5272221;28;20116;-73
2022/10/13 07:08:14;;;;;;;21.58;12.30;;;;;;;11.29;100.00;101541.09;5265025;28;20036;-73
2022/10/13 07:10:46;;;;;;;19.70;12.57;;;;;;;11.17;100.00;101548.16;5270264;28;20029;-73
2022/10/13 07:13:17;;;;;;;20.02;12.30;;;;;;;11.25;100.00;101544.94;5273040;28;20031;-73
2022/10/13 07:15:48;;;;;;;21.52;12.93;;;;;;;11.20;100.00;101552.44;5260839;28;20024;-73
2022/10/13 07:18:19;;;;;;;20.33;12.57;;;;;;;11.33;100.00;101556.00;5274362;28;20021;-73
2022/10/13 07:20:51;;;;;;;24.55;14.50;;;;;;;11.26;100.00;101567.19;5270132;28;20036;-73
2022/10/13 07:23:22;;;;;;;23.33;13.95;;;;;;;11.36;100.00;101560.25;5276169;28;20034;-73
2022/10/13 07:25:56;;;;;;;24.65;14.50;;;;;;;11.43;100.00;101553.53;5275233;28;20491;-73
2022/10/13 07:28:27;;;;;;;23.42;14.48;;;;;;;11.36;100.00;101547.75;5263142;28;20044;-73
2022/10/13 07:30:58;;;;;;;26.92;14.68;;;;;;;11.49;100.00;101549.59;5258226;28;20025;-74
2022/10/13 07:33:29;;;;;;;25.42;14.35;;;;;;;11.35;100.00;101553.19;5264412;28;20024;-74
2022/10/13 07:36:01;;;;;;;22.15;13.93;;;;;;;11.40;100.00;101556.41;5267389;28;20037;-73
2022/10/13 07:38:32;;;;;;;24.65;13.68;;;;;;;11.41;100.00;101566.16;5270863;28;20070;-73
2022/10/13 07:41:05;;;;;;;25.63;14.18;;;;;;;11.53;100.00;101557.28;5262907;28;20089;-73
2022/10/13 07:43:37;;;;;;;22.17;14.00;;;;;;;11.50;100.00;101559.31;5268068;28;20781;-74
2022/10/13 07:46:11;;;;;;;24.40;14.73;;;;;;;11.46;100.00;101552.47;5265457;28;20029;-73
2022/10/13 07:48:43;;;;;;;25.45;14.93;;;;;;;11.61;100.00;101555.91;5272647;28;20375;-73
2022/10/13 07:51:14;;;;;;;26.85;15.50;;;;;;;11.67;100.00;101545.63;5268426;28;20032;-73
2022/10/13 07:53:46;;;;;;;24.42;14.77;;;;;;;11.58;100.00;101551.59;5270619;28;20137;-73
2022/10/13 07:56:17;;;;;;;24.85;14.38;;;;;;;11.65;100.00;101560.06;5260141;28;20037;-73
2022/10/13 07:58:48;;;;;;;28.13;16.08;;;;;;;11.75;100.00;101563.81;5272152;28;20020;-73
2022/10/13 08:01:19;;;;;;;24.30;15.10;;;;;;;11.75;100.00;101564.69;5265233;28;20024;-74
2022/10/13 08:03:53;;;;;;;27.50;15.02;;;;;;;11.92;100.00;101559.97;5264818;28;20032;-73
2022/10/13 08:06:25;;;;;;;21.98;15.65;;;;;;;12.04;100.00;101561.81;5261262;28;20047;-73
2022/10/13 08:08:56;;;;;;;25.42;15.40;;;;;;;11.99;100.00;101558.59;5261017;28;20037;-73
2022/10/13 08:11:28;;;;;;;23.13;14.40;;;;;;;12.15;100.00;101561.00;5267540;28;20126;-74
2022/10/13 08:14:02;;;;;;;22.98;14.10;;;;;;;12.02;100.00;101560.19;5264539;28;20028;-73
2022/10/13 08:16:33;;;;;;;24.70;15.05;;;;;;;12.05;100.00;101557.28;5262992;28;20052;-74
2022/10/13 08:19:05;;;;;;;22.25;14.07;;;;;;;12.15;100.00;101559.19;5256886;28;20017;-74
2022/10/13 08:21:37;;;;;;;20.83;14.13;;;;;;;12.11;100.00;101549.69;5259532;28;20032;-73
2022/10/13 08:24:15;;;;;;;21.45;13.55;;;;;;;12.18;100.00;101555.47;5268755;28;20593;-72
2022/10/13 08:26:46;;;;;;;25.25;13.98;;;;;;;12.31;100.00;101550.06;5270668;28;20071;-72
2022/10/13 08:29:17;;;;;;;23.20;13.40;;;;;;;12.27;100.00;101543.22;5259372;28;20119;-72
2022/10/13 08:31:49;;;;;;;24.20;13.85;;;;;;;12.26;100.00;101550.41;5258122;28;20024;-72
2022/10/13 08:34:22;;;;;;;20.35;12.85;;;;;;;12.39;100.00;101542.34;5266823;28;20032;-72
2022/10/13 08:36:55;;;;;;;21.90;13.30;;;;;;;12.41;100.00;101540.41;5268959;28;20108;-72
2022/10/13 08:39:26;;;;;;;20.48;12.23;;;;;;;12.34;100.00;101552.50;5271341;28;20079;-72
2022/10/13 08:41:59;;;;;;;24.00;12.95;;;;;;;12.40;100.00;101553.88;5247508;28;20445;-72
2022/10/13 08:44:38;;;;;;;19.45;13.13;;;;;;;12.41;100.00;101544.91;5261830;28;20079;-72
2022/10/13 08:47:40;;;;;;;21.70;13.45;;;;;;;12.47;100.00;101550.66;5259463;28;20033;-72
2022/10/13 08:50:18;;;;;;;23.30;14.20;;;;;;;12.49;100.00;101545.19;5261283;28;20040;-72
2022/10/13 08:52:54;;;;;;;24.90;12.98;;;;;;;12.50;100.00;101549.56;5262109;28;20025;-73
2022/10/13 08:55:34;;;;;;;20.52;13.05;;;;;;;12.54;100.00;101548.38;5262024;28;20044;-73
2022/10/13 08:58:14;;;;;;;22.02;13.10;;;;;;;12.57;100.00;101542.81;5256941;28;20028;-73
2022/10/13 09:00:45;;;;;;;18.42;12.10;;;;;;;12.65;100.00;101540.41;5259926;28;20032;-73
2022/10/13 09:03:25;;;;;;;20.63;12.45;;;;;;;12.66;100.00;101534.09;5257889;28;20083;-73
2022/10/13 09:06:30;;;;;;;20.60;12.77;;;;;;;12.70;100.00;101529.38;5257961;28;20051;-73
2022/10/13 09:09:07;;;;;;;21.40;12.95;;;;;;;12.69;100.00;101531.16;5258363;28;20132;-73
2022/10/13 09:11:47;;;;;;;20.83;12.90;;;;;;;12.78;100.00;101516.25;5240335;28;20098;-73
2022/10/13 09:14:19;;;;;;;20.33;11.90;;;;;;;12.74;100.00;101530.84;5275866;28;20081;-73
2022/10/13 09:16:51;;;;;;;22.35;13.40;;;;;;;12.75;100.00;101530.72;5261813;28;20051;-73
2022/10/13 09:19:35;;;;;;;19.48;12.13;;;;;;;12.72;100.00;101533.63;5262696;28;20025;-73
2022/10/13 09:22:23;;;;;;;20.87;11.33;;;;;;;12.78;100.00;101535.00;5263351;28;20044;-73
2022/10/13 09:25:06;;;;;;;18.55;11.68;;;;;;;12.74;100.00;101531.69;5259039;28;20283;-74
2022/10/13 09:27:50;;;;;;;23.75;11.88;;;;;;;12.78;100.00;101526.97;5265363;28;20036;-73
2022/10/13 09:30:30;;;;;;;19.67;12.37;;;;;;;12.77;100.00;101529.75;5271900;28;20593;-73
2022/10/13 09:33:07;;;;;;;22.35;12.68;;;;;;;12.74;100.00;101520.97;5273950;28;20360;-73
2022/10/13 09:35:41;;;;;;;22.08;13.27;;;;;;;12.78;100.00;101526.13;5272128;28;20032;-73
2022/10/13 09:38:17;;;;;;;22.67;12.60;;;;;;;12.83;100.00;101513.22;5274660;28;20025;-73
2022/10/13 09:41:05;;;;;;;22.35;13.68;;;;;;;12.87;100.00;101517.41;5269764;28;20811;-74
2022/10/13 09:43:43;;;;;;;21.75;12.50;;;;;;;12.87;100.00;101525.44;5266430;28;20329;-74
2022/10/13 09:46:28;;;;;;;20.52;12.65;;;;;;;12.89;100.00;101521.66;5272319;28;20043;-73
2022/10/13 09:49:07;;;;;;;20.13;13.75;;;;;;;12.94;100.00;101521.28;5267089;28;20040;-73
2022/10/13 09:51:41;;;;;;;24.45;13.30;;;;;;;12.89;100.00;101518.13;5273219;28;20265;-74
2022/10/13 09:54:39;;;;;;;25.27;14.43;;;;;;;12.89;100.00;101518.97;5271262;28;20055;-73
2022/10/13 09:57:13;;;;;;;28.67;15.43;;;;;;;12.87;100.00;101520.06;5266543;28;20100;-74
2022/10/13 09:59:49;;;;;;;23.73;13.95;;;;;;;12.79;100.00;101517.09;5269319;28;20032;-74
2022/10/13 10:02:29;;;;;;;24.45;14.60;;;;;;;12.89;100.00;101515.47;5259075;28;20123;-72
2022/10/13 10:05:20;;;;;;;22.38;13.93;;;;;;;12.74;100.00;101520.13;5265306;28;20047;-72
2022/10/13 10:07:51;;;;;;;25.65;14.18;;;;;;;12.74;100.00;101514.78;5267935;28;20036;-72
2022/10/13 10:10:33;;;;;;;24.13;15.38;;;;;;;12.75;100.00;101516.47;5281011;28;20925;-72
2022/10/13 10:13:04;;;;;;;26.42;15.38;;;;;;;12.70;100.00;101506.13;5252291;28;20024;-72
2022/10/13 10:15:54;;;;;;;21.88;14.35;;;;;;;12.80;100.00;101503.59;5269972;28;20024;-72
2022/10/13 10:18:35;;;;;;;23.52;15.52;;;;;;;12.74;100.00;101507.59;5263990;28;20016;-72
2022/10/13 10:21:33;;;;;;;24.70;15.35;;;;;;;12.71;100.00;101502.47;5265055;28;20029;-72
2022/10/13 10:24:24;;;;;;;23.08;13.70;;;;;;;12.65;100.00;101497.56;5271885;28;20167;-72
2022/10/13 10:27:08;;;;;;;22.70;14.55;;;;;;;12.59;100.00;101500.72;5271881;28;20023;-72
2022/10/13 10:30:03;;;;;;;22.83;14.32;;;;;;;12.60;100.00;101496.19;5271055;28;20051;-72
2022/10/13 10:32:58;;;;;;;22.27;14.43;;;;;;;12.55;100.00;101497.41;5261910;28;20024;-72
2022/10/13 10:35:40;;;;;;;;;;;;;;;12.64;100.00;101503.91;5263955;28;20543;-66
2022/10/13 10:38:26;;;;;;;24.65;15.05;;;;;;;12.56;100.00;101500.94;5272281;28;20393;-66
2022/10/13 10:41:39;;;;;;;22.70;14.85;;;;;;;12.59;100.00;101495.34;5271865;28;20040;-67
2022/10/13 10:44:32;;;;;;;21.65;15.05;;;;;;;12.64;100.00;101497.69;5261423;28;20095;-67
2022/10/13 10:47:19;;;;;;;23.13;15.18;;;;;;;12.74;100.00;101498.72;5260020;28;20025;-67
2022/10/13 10:50:00;;;;;;;24.52;15.15;;;;;;;12.70;100.00;101503.44;5263092;28;20038;-67
2022/10/13 10:52:46;;;;;;;24.40;14.85;;;;;;;12.73;100.00;101503.22;5264507;28;20473;-67
2022/10/13 10:55:54;;;;;;;21.10;14.50;;;;;;;12.79;100.00;101493.00;5268678;28;20132;-67
2022/10/13 10:58:59;;;;;;;21.70;14.23;;;;;;;12.80;100.00;101495.56;5265707;28;20079;-67
2022/10/13 11:01:43;;;;;;;22.30;14.45;;;;;;;12.80;100.00;101486.69;5270028;28;20050;-66
2022/10/13 11:04:43;;;;;;;22.88;14.57;;;;;;;12.90;100.00;101483.16;5261156;28;20402;-67
2022/10/13 11:07:23;;;;;;;22.23;14.40;;;;;;;12.90;100.00;101477.81;5269405;28;20027;-67
2022/10/13 11:09:56;;;;;;;21.42;15.18;;;;;;;12.87;100.00;101478.06;5243771;28;20037;-67
2022/10/13 11:12:52;;;;;;;25.17;15.30;;;;;;;12.96;100.00;101476.50;5264318;28;20071;-67
2022/10/13 11:15:26;;;;;;;21.73;14.15;;;;;;;12.99;100.00;101472.75;5264959;28;20044;-66
2022/10/13 11:17:57;;;;;;;21.42;14.48;;;;;;;12.97;100.00;101475.53;5272133;28;20406;-66
2022/10/13 11:20:34;;;;;;;19.67;13.82;;;;;;;12.97;100.00;101469.34;5266315;28;20041;-66
2022/10/13 11:23:11;;;;;;;21.48;13.27;;;;;;;12.95;100.00;101472.97;5271538;28;20035;-67
2022/10/13 11:25:43;;;;;;;23.27;14.00;;;;;;;12.95;100.00;101475.66;5257090;28;20033;-66
2022/10/13 11:28:40;;;;;;;21.80;13.82;;;;;;;12.94;100.00;101475.75;5268095;28;20033;-66
2022/10/13 11:31:11;;;;;;;19.17;13.40;;;;;;;12.90;100.00;101466.25;5268450;28;20481;-66
2022/10/13 11:33:43;;;;;;;20.00;13.15;;;;;;;12.97;100.00;101453.25;5270205;28;20612;-66
2022/10/13 11:36:47;;;;;;;19.05;13.50;;;;;;;12.98;100.00;101457.63;5264367;28;20054;-66
2022/10/13 11:39:27;;;;;;;21.00;11.98;;;;;;;12.97;100.00;101462.16;5263775;28;20025;-67
2022/10/13 11:42:23;;;;;;;19.25;13.70;;;;;;;12.94;100.00;101457.00;5272094;28;20032;-66